createdAt,value
2023-04-16T00:00:45.207Z,100351.56
2023-04-16T00:03:48.333Z,100347.69
2023-04-16T00:06:51.559Z,100343.41
2023-04-16T00:09:54.353Z,100349.34
2023-04-16T00:12:57.337Z,100348.31
2023-04-16T00:16:00.233Z,100345.06
2023-04-16T00:19:03.079Z,100349.13
2023-04-16T00:22:06.465Z,100352.56
2023-04-16T00:25:14.462Z,100354.66
2023-04-16T00:28:17.304Z,100341.03
2023-04-16T00:31:31.090Z,100350.81
2023-04-16T00:34:34.258Z,100346.72
2023-04-16T00:37:37.334Z,100355.06
2023-04-16T00:40:40.485Z,100353.63
2023-04-16T00:43:43.670Z,100353.41
2023-04-16T00:46:46.921Z,100354.06
2023-04-16T00:49:50.615Z,100345.16
2023-04-16T00:52:53.727Z,100350.81
2023-04-16T00:55:57.826Z,100347.38
2023-04-16T00:59:01.250Z,100356.47
2023-04-16T01:02:04.371Z,100358.50
2023-04-16T01:05:07.680Z,100353.66
2023-04-16T01:08:21.797Z,100349.84
2023-04-16T01:11:25.067Z,100353.91
2023-04-16T01:14:28.053Z,100362.41
2023-04-16T01:17:30.961Z,100361.16
2023-04-16T01:20:36.202Z,100357.72
2023-04-16T01:23:39.252Z,100354.06
2023-04-16T01:26:42.310Z,100350.22
2023-04-16T01:29:45.226Z,100353.28
2023-04-16T01:32:49.245Z,100349.22
2023-04-16T01:35:52.165Z,100349.03
2023-04-16T01:38:55.138Z,100345.81
2023-04-16T01:41:58.011Z,100347.00
2023-04-16T01:45:01.153Z,100344.34
2023-04-16T01:48:04.595Z,100346.41
2023-04-16T01:51:07.381Z,100341.09
2023-04-16T01:54:10.268Z,100345.56
2023-04-16T01:57:13.150Z,100346.56
2023-04-16T02:00:16.157Z,100338.66
2023-04-16T02:03:24.927Z,100336.66
2023-04-16T02:06:29.311Z,100333.78
2023-04-16T02:09:34.188Z,100334.41
2023-04-16T02:12:37.185Z,100338.66
2023-04-16T02:15:40.102Z,100336.19
2023-04-16T02:18:42.902Z,100338.22
2023-04-16T02:21:46.399Z,100336.16
2023-04-16T02:24:50.849Z,100339.03
2023-04-16T02:27:53.581Z,100341.44
2023-04-16T02:31:11.179Z,100339.44
2023-04-16T02:34:19.376Z,100342.28
2023-04-16T02:37:22.159Z,100339.03
2023-04-16T02:40:25.788Z,100333.75
2023-04-16T02:43:28.807Z,100327.66
2023-04-16T02:46:32.080Z,100336.41
2023-04-16T02:49:36.021Z,100337.38
2023-04-16T02:52:39.000Z,100332.94
2023-04-16T02:55:41.852Z,100327.00
2023-04-16T02:58:44.856Z,100328.63
2023-04-16T03:01:48.037Z,100329.81
2023-04-16T03:04:51.021Z,100320.28
2023-04-16T03:07:56.876Z,100326.97
2023-04-16T03:10:59.669Z,100324.13
2023-04-16T03:14:02.502Z,100328.41
2023-04-16T03:17:05.552Z,100324.16
2023-04-16T03:20:09.443Z,100319.31
2023-04-16T03:23:12.392Z,100325.81
2023-04-16T03:26:15.415Z,100321.72
2023-04-16T03:29:18.588Z,100321.31
2023-04-16T03:32:21.619Z,100322.75
2023-04-16T03:35:24.522Z,100320.50
2023-04-16T03:38:27.481Z,100326.00
2023-04-16T03:41:32.676Z,100324.78
2023-04-16T03:44:36.413Z,100327.81
2023-04-16T03:47:39.255Z,100340.78
2023-04-16T03:50:47.097Z,100331.47
2023-04-16T03:53:51.753Z,100325.19
2023-04-16T03:56:55.082Z,100334.31
2023-04-16T03:59:58.148Z,100335.16
2023-04-16T04:03:03.803Z,100326.19
2023-04-16T04:06:08.889Z,100325.19
2023-04-16T04:09:12.025Z,100320.53
2023-04-16T04:12:15.091Z,100320.53
2023-04-16T04:15:19.993Z,100326.41
2023-04-16T04:18:23.396Z,100334.34
2023-04-16T04:21:28.521Z,100334.75
2023-04-16T04:24:31.420Z,100342.69
2023-04-16T04:27:34.625Z,100346.97
2023-04-16T04:30:38.237Z,100350.84
2023-04-16T04:33:42.062Z,100345.16
2023-04-16T04:36:44.883Z,100350.66
2023-04-16T04:39:49.429Z,100357.78
2023-04-16T04:42:53.046Z,100363.91
2023-04-16T04:45:58.448Z,100359.66
2023-04-16T04:49:03.764Z,100366.19
2023-04-16T04:52:08.447Z,100369.44
2023-04-16T04:55:11.578Z,100371.69
2023-04-16T04:58:14.542Z,100369.00
2023-04-16T05:01:18.674Z,100375.34
2023-04-16T05:04:21.477Z,100372.31
2023-04-16T05:07:24.239Z,100378.81
2023-04-16T05:10:27.389Z,100374.34
2023-04-16T05:13:30.166Z,100374.34
2023-04-16T05:16:32.949Z,100384.69
2023-04-16T05:19:35.844Z,100392.84
2023-04-16T05:22:38.929Z,100388.19
2023-04-16T05:25:41.808Z,100402.81
2023-04-16T05:28:44.641Z,100403.69
2023-04-16T05:31:47.489Z,100397.81
2023-04-16T05:34:50.404Z,100377.28
2023-04-16T05:37:53.383Z,100383.78
2023-04-16T05:40:56.317Z,100366.53
2023-04-16T05:43:59.142Z,100386.25
2023-04-16T05:47:02.056Z,100383.38
2023-04-16T05:50:05.197Z,100391.94
2023-04-16T05:53:09.467Z,100391.53
2023-04-16T05:56:12.353Z,100388.25
2023-04-16T05:59:15.166Z,100388.88
2023-04-16T06:02:18.106Z,100387.44
2023-04-16T06:05:20.979Z,100392.75
2023-04-16T06:08:24.053Z,100389.41
2023-04-16T06:11:27.894Z,100398.63
2023-04-16T06:14:30.918Z,100390.44
2023-04-16T06:17:33.902Z,100385.38
2023-04-16T06:20:36.973Z,100393.53
2023-04-16T06:23:40.020Z,100399.22
2023-04-16T06:26:42.934Z,100395.22
2023-04-16T06:29:45.801Z,100387.81
2023-04-16T06:32:49.784Z,100384.16
2023-04-16T06:35:52.572Z,100385.97
2023-04-16T06:38:55.652Z,100388.16
2023-04-16T06:41:58.493Z,100383.94
2023-04-16T06:45:01.682Z,100394.66
2023-04-16T06:48:05.380Z,100383.13
2023-04-16T06:51:08.507Z,100382.16
2023-04-16T06:54:11.300Z,100376.59
2023-04-16T06:57:14.152Z,100376.00
2023-04-16T07:00:19.488Z,100375.97
2023-04-16T07:03:22.818Z,100373.06
2023-04-16T07:06:26.985Z,100371.53
2023-04-16T07:09:29.853Z,100374.72
2023-04-16T07:12:33.558Z,100370.94
2023-04-16T07:15:36.296Z,100390.19
2023-04-16T07:18:39.311Z,100387.41
2023-04-16T07:21:44.922Z,100384.59
2023-04-16T07:24:47.856Z,100383.50
2023-04-16T07:27:50.619Z,100385.31
2023-04-16T07:30:53.406Z,100374.09
2023-04-16T07:33:56.196Z,100374.16
2023-04-16T07:36:59.057Z,100368.53
2023-04-16T07:40:02.034Z,100382.78
2023-04-16T07:43:04.835Z,100391.50
2023-04-16T07:46:07.799Z,100400.66
2023-04-16T07:49:10.867Z,100406.41
2023-04-16T07:52:14.067Z,100400.28
2023-04-16T07:55:16.954Z,100401.19
2023-04-16T07:58:19.743Z,100397.16
2023-04-16T08:01:22.589Z,100400.91
2023-04-16T08:04:26.423Z,100395.69
2023-04-16T08:07:29.474Z,100400.22
2023-04-16T08:10:33.423Z,100418.41
2023-04-16T08:13:36.249Z,100411.28
2023-04-16T08:16:40.769Z,100407.56
2023-04-16T08:19:45.286Z,100401.72
2023-04-16T08:22:49.234Z,100410.84
2023-04-16T08:25:53.050Z,100406.13
2023-04-16T08:28:56.032Z,100410.06
2023-04-16T08:32:00.000Z,100425.88
2023-04-16T08:35:03.047Z,100422.38
2023-04-16T08:38:07.633Z,100420.53
2023-04-16T08:41:13.386Z,100418.97
2023-04-16T08:44:49.275Z,100426.59
2023-04-16T08:47:53.229Z,100423.19
2023-04-16T08:50:56.634Z,100425.91
2023-04-16T08:54:04.849Z,100423.38
2023-04-16T08:57:12.038Z,100425.00
2023-04-16T09:00:16.860Z,100422.84
2023-04-16T09:03:22.507Z,100415.56
2023-04-16T09:06:28.450Z,100412.31
2023-04-16T09:09:33.386Z,100415.75
2023-04-16T09:12:40.211Z,100410.75
2023-04-16T09:15:46.073Z,100415.63
2023-04-16T09:18:48.969Z,100409.63
2023-04-16T09:21:51.905Z,100419.94
2023-04-16T09:24:54.753Z,100414.88
2023-04-16T09:27:57.534Z,100423.00
2023-04-16T09:31:17.425Z,100427.38
2023-04-16T09:34:21.190Z,100436.25
2023-04-16T09:37:24.995Z,100434.69
2023-04-16T09:40:30.663Z,100447.31
2023-04-16T09:43:33.562Z,100448.41
2023-04-16T09:46:45.546Z,100452.22
2023-04-16T09:49:48.627Z,100459.31
2023-04-16T09:52:51.901Z,100459.69
2023-04-16T09:56:01.568Z,100462.59
2023-04-16T09:59:04.405Z,100461.47
2023-04-16T10:02:14.514Z,100456.09
2023-04-16T10:05:20.525Z,100459.94
2023-04-16T10:08:24.289Z,100451.31
2023-04-16T10:11:27.387Z,100451.25
2023-04-16T10:14:30.109Z,100448.38
2023-04-16T10:17:33.532Z,100448.00
2023-04-16T10:20:37.415Z,100443.31
2023-04-16T10:23:41.713Z,100444.22
2023-04-16T10:26:45.449Z,100439.50
2023-04-16T10:29:49.499Z,100437.97
2023-04-16T10:32:52.992Z,100434.78
2023-04-16T10:36:12.076Z,100427.09
2023-04-16T10:39:19.072Z,100413.69
2023-04-16T10:42:22.083Z,100411.81
2023-04-16T10:45:37.784Z,100418.56
2023-04-16T10:48:49.591Z,100412.94
2023-04-16T10:51:58.862Z,100414.81
2023-04-16T10:55:01.570Z,100414.25
2023-04-16T10:58:27.605Z,100411.31
2023-04-16T11:01:32.716Z,100408.47
2023-04-16T11:04:37.811Z,100395.22
2023-04-16T11:07:49.563Z,100398.34
2023-04-16T11:10:53.420Z,100390.47
2023-04-16T11:13:57.222Z,100398.50
2023-04-16T11:17:03.989Z,100395.50
2023-04-16T11:20:20.492Z,100394.03
2023-04-16T11:23:23.815Z,100390.88
2023-04-16T11:26:30.872Z,100391.97
2023-04-16T11:29:34.281Z,100395.22
2023-04-16T11:32:40.488Z,100395.84
2023-04-16T11:35:43.722Z,100397.34
2023-04-16T11:38:47.388Z,100387.69
2023-04-16T11:41:52.670Z,100393.22
2023-04-16T11:44:57.081Z,100382.91
2023-04-16T11:48:00.045Z,100387.53
2023-04-16T11:51:03.244Z,100390.38
2023-04-16T11:54:08.066Z,100384.56
2023-04-16T11:57:13.560Z,100377.38
2023-04-16T12:00:16.697Z,100377.84
2023-04-16T12:03:19.670Z,100389.25
2023-04-16T12:06:24.336Z,100387.63
2023-04-16T12:09:27.469Z,100380.88
2023-04-16T12:12:32.620Z,100384.91
2023-04-16T12:15:49.830Z,100381.63
2023-04-16T12:19:05.756Z,100384.22
2023-04-16T12:22:08.491Z,100384.72
2023-04-16T12:25:12.879Z,100386.75
2023-04-16T12:28:26.693Z,100382.75
2023-04-16T12:31:38.743Z,100372.97
2023-04-16T12:34:51.742Z,100368.19
2023-04-16T12:37:54.538Z,100362.97
2023-04-16T12:40:58.571Z,100360.31
2023-04-16T12:44:12.931Z,100360.59
2023-04-16T12:47:15.884Z,100356.97
2023-04-16T12:50:18.880Z,100340.94
2023-04-16T12:53:21.807Z,100343.66
2023-04-16T12:56:24.799Z,100339.28
2023-04-16T12:59:28.024Z,100346.81
2023-04-16T13:02:32.456Z,100333.22
2023-04-16T13:05:35.526Z,100338.03
2023-04-16T13:08:38.451Z,100336.28
2023-04-16T13:11:41.889Z,100345.03
2023-04-16T13:14:45.305Z,100332.97
2023-04-16T13:17:48.218Z,100340.06
2023-04-16T13:20:51.212Z,100349.41
2023-04-16T13:23:54.658Z,100335.16
2023-04-16T13:26:57.548Z,100340.03
2023-04-16T13:30:00.582Z,100333.97
2023-04-16T13:33:03.879Z,100325.66
2023-04-16T13:36:07.103Z,100334.50
2023-04-16T13:39:13.070Z,100332.41
2023-04-16T13:42:15.834Z,100322.25
2023-04-16T13:45:20.616Z,100323.50
2023-04-16T13:48:23.614Z,100329.53
2023-04-16T13:51:27.794Z,100323.50
2023-04-16T13:54:30.745Z,100333.31
2023-04-16T13:57:33.906Z,100334.22
2023-04-16T14:00:37.678Z,100325.72
2023-04-16T14:03:42.067Z,100331.25
2023-04-16T14:06:45.034Z,100333.38
2023-04-16T14:09:48.001Z,100331.09
2023-04-16T14:12:51.552Z,100340.88
2023-04-16T14:15:55.001Z,100331.72
2023-04-16T14:19:00.377Z,100343.84
2023-04-16T14:22:03.235Z,100345.25
2023-04-16T14:25:07.234Z,100341.16
2023-04-16T14:28:10.124Z,100338.38
2023-04-16T14:31:13.171Z,100340.00
2023-04-16T14:34:17.105Z,100343.78
2023-04-16T14:37:20.333Z,100345.53
2023-04-16T14:40:23.504Z,100339.84
2023-04-16T14:43:27.378Z,100345.53
2023-04-16T14:46:30.669Z,100343.19
2023-04-16T14:49:34.533Z,100340.78
2023-04-16T14:52:37.712Z,100344.84
2023-04-16T14:55:40.744Z,100343.44
2023-04-16T14:58:43.792Z,100337.53
2023-04-16T15:01:47.398Z,100340.34
2023-04-16T15:04:50.487Z,100341.72
2023-04-16T15:07:53.886Z,100337.47
2023-04-16T15:10:57.093Z,100347.13
2023-04-16T15:14:00.002Z,100338.88
2023-04-16T15:17:03.474Z,100348.13
2023-04-16T15:20:08.364Z,100337.59
2023-04-16T15:23:11.192Z,100339.13
2023-04-16T15:26:14.410Z,100340.44
2023-04-16T15:29:17.583Z,100343.63
2023-04-16T15:32:20.618Z,100336.44
2023-04-16T15:35:23.736Z,100343.13
2023-04-16T15:38:26.947Z,100342.00
2023-04-16T15:41:32.110Z,100346.38
2023-04-16T15:44:35.147Z,100348.69
2023-04-16T15:47:40.173Z,100350.47
2023-04-16T15:50:44.786Z,100354.56
2023-04-16T15:53:49.603Z,100344.41
2023-04-16T15:56:52.667Z,100353.50
2023-04-16T16:00:06.606Z,100355.16
2023-04-16T16:03:11.188Z,100347.41
2023-04-16T16:06:14.225Z,100353.56
2023-04-16T16:09:17.511Z,100361.81
2023-04-16T16:12:20.535Z,100355.25
2023-04-16T16:15:23.554Z,100363.69
2023-04-16T16:18:26.529Z,100349.81
2023-04-16T16:21:32.930Z,100353.09
2023-04-16T16:24:35.958Z,100347.75
2023-04-16T16:27:40.750Z,100351.38
2023-04-16T16:30:43.812Z,100345.47
2023-04-16T16:33:47.016Z,100340.06
2023-04-16T16:36:50.228Z,100355.19
2023-04-16T16:39:53.201Z,100348.91
2023-04-16T16:42:56.279Z,100352.88
2023-04-16T16:45:59.524Z,100349.75
2023-04-16T16:49:05.332Z,100352.66
2023-04-16T16:52:08.406Z,100395.63
2023-04-16T16:55:11.714Z,100398.72
2023-04-16T16:58:14.584Z,100390.34
2023-04-16T17:01:18.104Z,100407.31
2023-04-16T17:04:21.264Z,100409.31
2023-04-16T17:07:24.185Z,100405.50
2023-04-16T17:10:27.190Z,100410.50
2023-04-16T17:13:32.810Z,100411.19
2023-04-16T17:16:36.206Z,100414.66
2023-04-16T17:19:39.313Z,100404.69
2023-04-16T17:22:42.996Z,100399.84
2023-04-16T17:25:46.298Z,100409.47
2023-04-16T17:28:51.127Z,100401.47
2023-04-16T17:31:54.404Z,100403.06
2023-04-16T17:34:57.573Z,100410.19
2023-04-16T17:38:01.342Z,100413.78
2023-04-16T17:41:04.508Z,100414.94
2023-04-16T17:44:09.921Z,100423.06
2023-04-16T17:47:14.766Z,100416.31
2023-04-16T17:50:17.784Z,100419.09
2023-04-16T17:53:22.239Z,100422.56
2023-04-16T17:56:25.207Z,100425.59
2023-04-16T17:59:28.410Z,100418.38
2023-04-16T18:02:31.837Z,100418.16
2023-04-16T18:05:35.155Z,100428.44
2023-04-16T18:08:38.386Z,100433.53
2023-04-16T18:11:42.980Z,100425.56
2023-04-16T18:14:46.313Z,100424.28
2023-04-16T18:17:49.377Z,100421.72
2023-04-16T18:20:52.954Z,100421.38
2023-04-16T18:23:56.054Z,100420.41
2023-04-16T18:26:59.128Z,100421.13
2023-04-16T18:30:04.427Z,100429.78
2023-04-16T18:33:34.249Z,100429.88
2023-04-16T18:36:31.372Z,100433.00
2023-04-16T18:39:34.468Z,100426.50
2023-04-16T18:42:37.451Z,100426.81
2023-04-16T18:45:41.918Z,100422.19
2023-04-16T18:48:45.951Z,100418.06
2023-04-16T18:51:48.947Z,100421.59
2023-04-16T18:54:52.095Z,100429.94
2023-04-16T18:57:55.386Z,100429.06
2023-04-16T19:00:59.261Z,100436.22
2023-04-16T19:04:03.434Z,100435.28
2023-04-16T19:07:06.511Z,100426.88
2023-04-16T19:10:09.876Z,100425.47
2023-04-16T19:13:13.188Z,100434.94
2023-04-16T19:16:17.163Z,100433.75
2023-04-16T19:19:21.978Z,100442.75
2023-04-16T19:22:25.612Z,100449.72
2023-04-16T19:25:28.571Z,100451.63
2023-04-16T19:28:31.557Z,100440.72
2023-04-16T19:31:35.206Z,100434.50
2023-04-16T19:34:38.041Z,100434.41
2023-04-16T19:37:41.328Z,100434.72
2023-04-16T19:40:46.030Z,100448.31
2023-04-16T19:43:49.514Z,100453.03
2023-04-16T19:46:52.744Z,100454.59
2023-04-16T19:49:55.887Z,100444.38
2023-04-16T19:52:59.045Z,100434.41
2023-04-16T19:56:02.206Z,100439.19
2023-04-16T19:59:05.261Z,100432.31
2023-04-16T20:02:08.619Z,100436.00
2023-04-16T20:05:11.773Z,100441.38
2023-04-16T20:08:15.024Z,100435.38
2023-04-16T20:11:18.315Z,100433.34
2023-04-16T20:14:21.184Z,100424.47
2023-04-16T20:17:24.501Z,100415.03
2023-04-16T20:20:27.664Z,100419.34
2023-04-16T20:23:30.989Z,100405.06
2023-04-16T20:26:34.370Z,100404.47
2023-04-16T20:29:37.344Z,100398.53
2023-04-16T20:32:40.079Z,100402.47
2023-04-16T20:35:42.917Z,100395.69
2023-04-16T20:38:46.791Z,100392.38
2023-04-16T20:41:57.281Z,100383.41
2023-04-16T20:45:00.917Z,100378.75
2023-04-16T20:48:08.086Z,100371.53
2023-04-16T20:51:11.113Z,100373.25
2023-04-16T20:54:13.890Z,100375.09
2023-04-16T20:57:16.764Z,100368.13
2023-04-16T21:00:19.840Z,100362.31
2023-04-16T21:03:23.169Z,100358.63
2023-04-16T21:06:26.045Z,100354.13
2023-04-16T21:09:29.823Z,100352.72
2023-04-16T21:12:32.702Z,100353.31
2023-04-16T21:15:37.084Z,100343.56
2023-04-16T21:18:40.022Z,100338.91
2023-04-16T21:21:42.878Z,100339.47
2023-04-16T21:24:45.888Z,100328.44
2023-04-16T21:27:48.838Z,100332.41
2023-04-16T21:30:52.493Z,100327.72
2023-04-16T21:33:55.542Z,100326.66
2023-04-16T21:36:58.409Z,100323.19
2023-04-16T21:40:01.243Z,100329.31
2023-04-16T21:43:04.017Z,100321.78
2023-04-16T21:46:06.757Z,100322.97
2023-04-16T21:49:09.742Z,100324.44
2023-04-16T21:52:18.363Z,100327.31
2023-04-16T21:55:21.371Z,100324.88
2023-04-16T21:58:25.869Z,100324.88
2023-04-16T22:01:28.820Z,100322.22
2023-04-16T22:04:38.736Z,100311.38
2023-04-16T22:07:41.960Z,100325.47
2023-04-16T22:10:44.777Z,100317.50
2023-04-16T22:13:47.846Z,100328.50
2023-04-16T22:16:51.838Z,100322.97
2023-04-16T22:19:55.348Z,100321.56
2023-04-16T22:22:58.938Z,100319.88
2023-04-16T22:26:03.111Z,100322.31
2023-04-16T22:29:06.830Z,100320.47
2023-04-16T22:32:09.903Z,100316.19
2023-04-16T22:35:13.127Z,100323.34
2023-04-16T22:38:16.615Z,100316.41
2023-04-16T22:41:19.553Z,100308.06
2023-04-16T22:44:22.359Z,100321.94
2023-04-16T22:47:25.360Z,100324.97
2023-04-16T22:50:28.719Z,100317.22
2023-04-16T22:53:31.679Z,100328.66
2023-04-16T22:56:34.429Z,100321.34
2023-04-16T22:59:37.265Z,100322.75
2023-04-16T23:02:40.180Z,100326.66
2023-04-16T23:05:43.021Z,100326.66
2023-04-16T23:08:45.776Z,100314.25
2023-04-16T23:11:49.151Z,100312.91
2023-04-16T23:14:53.263Z,100317.19
2023-04-16T23:17:56.256Z,100317.28
2023-04-16T23:20:59.171Z,100311.16
2023-04-16T23:24:02.175Z,100311.59
2023-04-16T23:27:05.066Z,100303.19
2023-04-16T23:30:08.491Z,100304.38
2023-04-16T23:33:14.647Z,100304.00
2023-04-16T23:36:17.547Z,100300.97
2023-04-16T23:39:20.639Z,100289.94
2023-04-16T23:42:23.686Z,100285.78
2023-04-16T23:45:26.639Z,100280.31
2023-04-16T23:48:29.484Z,100286.81
2023-04-16T23:51:32.413Z,100282.97
2023-04-16T23:54:35.293Z,100282.91
2023-04-16T23:57:38.052Z,100279.88
